Okeechobee, FL

11:08 PM EDT on August 27, 2015 (GMT -0400)
Okeechobee County | | Change Station
CLOSE
Current Station
Airport
Location: Okeechobee,
Elevation: 33 ft
Nearby Weather Stations

Elev 33 ft 27.27 °N, 80.85 °W | Updated 13 minutes ago

Clear
Clear
72 °F
Feels Like 72 °F
N
4
Wind Variable Wind from NE

Today
High -- | Low -- °F
--% Chance of Precip.
Yesterday
High -- | Low -- °F
Precip. -- in
7:00 AM 7:49 PM
Waxing Gibbous, 96% visible
Pressure 30.00 in
Visibility 10.0 miles
Clouds Clear
Dew Point 72 °F
Humidity 100%
Rainfall 0.14 in
Snow Depth Not available.
UV 0 out of 12
Pollen .60 out of 12
Air Quality Not available.
Flu Activity Not available.
METAR KOBE 280255Z AUTO 05003KT 10SM CLR 22/22 A3000 RMK AO2
Pressure 30.00 in
Visibility 10.0 miles
Clouds Clear
Dew Point 72 °F
Humidity 100%
Rainfall 0.14 in
Snow Depth Not available.
UV 0 out of 12
Pollen .60 out of 12
Air Quality Not available.
Flu Activity Not available.
METAR KOBE 280255Z AUTO 05003KT 10SM CLR 22/22 A3000 RMK AO2
Tropical Storm Erika remains unorganized as it travels through the northeast Caribbean Sea. The storm has already dumped 5-10 inches of rain on the Lesser Antilles, with more rain anticipated for Puerto Rico and Hispaniola. This will be much-needed rain for those islands. Erika is not forecast to reach hurricane strength until Monday when it curves northward along the east coast of Florida. Follow the live blog

10-Day Weather Forecast

×

Almanac

Astronomy

Aug. 27, 2015 Rise Set
Actual Time
Civil Twilight
Nautical Twilight
Astronomical Twilight
Moon
Length of Visible Light
Length of Day
Tomorrow will be .
, % of the Moon is Illuminated

Today's Extremes

State Highs State Lows

Community

WunderPhotos

Upload Photos

1,850,310 photos uploaded!

WunderBlogs® & News

Nearby

Air Quality

  Air Quality AQ Index Pollutant
Not available.

Snow Depth

Station Depth Elevation

Earthquake Activity

City Distance Mag. Time & Date
Minimum magnitude displayed is 2.5.

Coastal Water Temperatures

Place Temperature

Stations

Nearby Weather Stations

Station Location Temp. Windchill Dew Point Humidity Wind Precip. Elev Updated Type